createdAt,value
2022-11-26T00:01:42.450Z,12.10
2022-11-26T00:04:09.439Z,12.10
2022-11-26T00:06:43.941Z,12.10
2022-11-26T00:09:15.788Z,12.10
2022-11-26T00:11:42.071Z,12.10
2022-11-26T00:14:16.657Z,12.00
2022-11-26T00:16:44.274Z,12.10
2022-11-26T00:19:10.537Z,12.00
2022-11-26T00:21:40.275Z,12.00
2022-11-26T00:24:27.020Z,12.00
2022-11-26T00:26:57.860Z,12.00
2022-11-26T00:29:24.113Z,12.00
2022-11-26T00:31:50.309Z,12.00
2022-11-26T00:34:16.761Z,12.00
2022-11-26T00:36:43.742Z,12.00
2022-11-26T00:39:17.040Z,12.00
2022-11-26T00:41:49.793Z,11.90
2022-11-26T00:44:23.462Z,11.90
2022-11-26T00:46:50.757Z,11.90
2022-11-26T00:49:17.764Z,11.90
2022-11-26T00:51:46.216Z,11.90
2022-11-26T00:54:16.858Z,11.90
2022-11-26T00:56:43.636Z,11.90
2022-11-26T00:59:14.728Z,11.90
2022-11-26T01:01:41.324Z,11.90
2022-11-26T01:04:07.885Z,11.90
2022-11-26T01:06:39.034Z,11.90
2022-11-26T01:09:07.394Z,11.80
2022-11-26T01:11:33.683Z,11.90
2022-11-26T01:13:59.860Z,11.90
2022-11-26T01:16:29.589Z,11.90
2022-11-26T01:18:58.641Z,11.90
2022-11-26T01:21:27.843Z,11.80
2022-11-26T01:23:54.151Z,11.90
2022-11-26T01:26:26.736Z,11.90
2022-11-26T01:28:54.734Z,11.90
2022-11-26T01:31:24.823Z,11.90
2022-11-26T01:33:51.480Z,11.90
2022-11-26T01:36:34.273Z,11.80
2022-11-26T01:39:06.764Z,11.80
2022-11-26T01:42:06.026Z,11.80
2022-11-26T01:44:35.549Z,11.80
2022-11-26T01:47:20.487Z,11.80
2022-11-26T01:50:27.055Z,11.80
2022-11-26T01:53:10.463Z,11.80
2022-11-26T01:55:45.724Z,11.80
2022-11-26T01:58:19.102Z,11.80
2022-11-26T02:00:48.473Z,11.80
2022-11-26T02:03:15.568Z,11.80
2022-11-26T02:05:53.715Z,11.80
2022-11-26T02:08:20.265Z,11.80
2022-11-26T02:10:46.559Z,11.90
2022-11-26T02:13:12.938Z,11.80
2022-11-26T02:16:06.933Z,11.80
2022-11-26T02:18:43.907Z,11.80
2022-11-26T02:21:24.255Z,11.80
2022-11-26T02:24:31.192Z,11.80
2022-11-26T02:27:34.964Z,11.80
2022-11-26T02:30:06.340Z,11.80
2022-11-26T02:32:58.133Z,11.80
2022-11-26T02:35:46.624Z,11.80
2022-11-26T02:38:32.223Z,11.80
2022-11-26T02:40:58.429Z,11.80
2022-11-26T02:43:26.831Z,11.80
2022-11-26T02:46:01.071Z,11.80
2022-11-26T02:48:35.319Z,11.80
2022-11-26T02:51:12.116Z,11.80
2022-11-26T02:53:39.795Z,11.90
2022-11-26T02:56:16.406Z,11.80
2022-11-26T02:58:44.110Z,11.90
2022-11-26T03:01:21.735Z,11.90
2022-11-26T03:03:52.278Z,11.90
2022-11-26T03:06:19.926Z,11.90
2022-11-26T03:08:46.229Z,11.90
2022-11-26T03:11:12.792Z,11.90
2022-11-26T03:13:38.960Z,11.90
2022-11-26T03:16:05.243Z,11.90
2022-11-26T03:18:31.450Z,11.90
2022-11-26T03:20:57.622Z,11.90
2022-11-26T03:23:23.755Z,11.90
2022-11-26T03:25:49.901Z,11.90
2022-11-26T03:28:16.127Z,11.90
2022-11-26T03:30:42.525Z,11.90
2022-11-26T03:33:08.668Z,11.90
2022-11-26T03:35:34.814Z,11.90
2022-11-26T03:38:00.967Z,11.90
2022-11-26T03:40:27.336Z,11.90
2022-11-26T03:42:53.507Z,11.90
2022-11-26T03:45:19.696Z,11.90
2022-11-26T03:47:45.821Z,11.90
2022-11-26T03:50:12.136Z,11.90
2022-11-26T03:52:38.279Z,11.90
2022-11-26T03:55:04.846Z,11.90
2022-11-26T03:57:31.006Z,11.90
2022-11-26T03:59:57.387Z,11.90
2022-11-26T04:02:23.559Z,11.90
2022-11-26T04:04:49.819Z,11.90
2022-11-26T04:07:16.067Z,11.90
2022-11-26T04:09:42.346Z,11.90
2022-11-26T04:12:08.791Z,11.90
2022-11-26T04:14:34.956Z,11.90
2022-11-26T04:17:01.144Z,11.90
2022-11-26T04:19:27.389Z,11.90
2022-11-26T04:21:53.555Z,11.90
2022-11-26T04:24:19.676Z,11.90
2022-11-26T04:26:46.592Z,11.90
2022-11-26T04:29:12.794Z,11.90
2022-11-26T04:31:39.035Z,11.90
2022-11-26T04:34:05.289Z,11.80
2022-11-26T04:36:32.059Z,11.80
2022-11-26T04:38:58.322Z,11.80
2022-11-26T04:41:25.101Z,11.90
2022-11-26T04:43:51.966Z,11.80
2022-11-26T04:46:18.125Z,11.80
2022-11-26T04:48:44.393Z,11.80
2022-11-26T04:51:10.526Z,11.80
2022-11-26T04:53:36.674Z,11.90
2022-11-26T04:56:02.934Z,11.90
2022-11-26T04:58:29.073Z,11.90
2022-11-26T05:00:55.266Z,11.80
2022-11-26T05:03:21.543Z,11.90
2022-11-26T05:05:47.914Z,11.80
2022-11-26T05:08:14.304Z,11.80
2022-11-26T05:10:40.461Z,11.80
2022-11-26T05:13:06.659Z,11.80
2022-11-26T05:15:32.921Z,11.80
2022-11-26T05:17:59.059Z,11.80
2022-11-26T05:20:25.416Z,11.80
2022-11-26T05:22:51.541Z,11.80
2022-11-26T05:25:17.771Z,11.80
2022-11-26T05:27:43.910Z,11.80
2022-11-26T05:30:10.900Z,11.80
2022-11-26T05:32:37.112Z,11.80
2022-11-26T05:35:03.860Z,11.80
2022-11-26T05:37:30.113Z,11.80
2022-11-26T05:39:56.242Z,11.80
2022-11-26T05:42:22.429Z,11.80
2022-11-26T05:44:48.573Z,11.80
2022-11-26T05:47:14.744Z,11.70
2022-11-26T05:49:41.119Z,11.70
2022-11-26T05:52:07.282Z,11.70
2022-11-26T05:54:33.414Z,11.70
2022-11-26T05:57:00.463Z,11.70
2022-11-26T05:59:27.455Z,11.70
2022-11-26T06:01:53.628Z,11.70
2022-11-26T06:04:19.803Z,11.70
2022-11-26T06:06:46.004Z,11.70
2022-11-26T06:09:13.218Z,11.70
2022-11-26T06:11:39.508Z,11.70
2022-11-26T06:14:05.798Z,11.70
2022-11-26T06:16:32.014Z,11.70
2022-11-26T06:18:58.427Z,11.70
2022-11-26T06:21:24.686Z,11.70
2022-11-26T06:23:57.665Z,11.70
2022-11-26T06:26:25.534Z,11.70
2022-11-26T06:28:51.727Z,11.70
2022-11-26T06:31:17.879Z,11.70
2022-11-26T06:33:44.022Z,11.60
2022-11-26T06:36:10.626Z,11.70
2022-11-26T06:38:36.788Z,11.60
2022-11-26T06:41:07.157Z,11.60
2022-11-26T06:43:33.733Z,11.60
2022-11-26T06:46:09.311Z,11.60
2022-11-26T06:48:38.571Z,11.60
2022-11-26T06:51:08.090Z,11.60
2022-11-26T06:53:34.319Z,11.60
2022-11-26T06:56:03.026Z,11.60
2022-11-26T06:58:30.776Z,11.60
2022-11-26T07:00:57.362Z,11.60
2022-11-26T07:03:28.103Z,11.60
2022-11-26T07:05:58.217Z,11.60
2022-11-26T07:08:24.368Z,11.60
2022-11-26T07:10:50.550Z,11.60
2022-11-26T07:13:16.686Z,11.60
2022-11-26T07:15:42.913Z,11.70
2022-11-26T07:18:09.145Z,11.60
2022-11-26T07:20:36.588Z,11.60
2022-11-26T07:23:03.880Z,11.60
2022-11-26T07:25:30.830Z,11.70
2022-11-26T07:27:57.925Z,11.70
2022-11-26T07:30:27.109Z,11.70
2022-11-26T07:32:53.263Z,11.70
2022-11-26T07:35:19.626Z,11.70
2022-11-26T07:37:45.958Z,11.70
2022-11-26T07:40:12.839Z,11.70
2022-11-26T07:42:39.177Z,11.70
2022-11-26T07:45:06.055Z,11.70
2022-11-26T07:47:32.505Z,11.70
2022-11-26T07:49:58.891Z,11.70
2022-11-26T07:52:25.051Z,11.70
2022-11-26T07:54:51.203Z,11.70
2022-11-26T07:57:17.617Z,11.70
2022-11-26T07:59:43.793Z,11.70
2022-11-26T08:02:17.305Z,11.70
2022-11-26T08:04:43.530Z,11.70
2022-11-26T08:07:09.745Z,11.70
2022-11-26T08:09:36.271Z,11.80
2022-11-26T08:12:02.749Z,11.80
2022-11-26T08:14:29.250Z,11.80
2022-11-26T08:16:56.473Z,11.80
2022-11-26T08:19:22.777Z,11.80
2022-11-26T08:21:49.033Z,11.80
2022-11-26T08:24:18.697Z,11.80
2022-11-26T08:26:45.143Z,11.80
2022-11-26T08:29:12.992Z,11.80
2022-11-26T08:31:45.651Z,11.80
2022-11-26T08:34:15.233Z,11.80
2022-11-26T08:36:42.425Z,11.80
2022-11-26T08:39:13.443Z,11.80
2022-11-26T08:41:39.780Z,11.80
2022-11-26T08:44:07.546Z,11.90
2022-11-26T08:46:37.079Z,11.90
2022-11-26T08:49:04.343Z,11.90
2022-11-26T08:51:30.607Z,12.00
2022-11-26T08:53:56.846Z,12.00
2022-11-26T08:56:24.103Z,12.00
2022-11-26T08:58:50.944Z,12.10
2022-11-26T09:01:24.113Z,12.10
2022-11-26T09:03:53.334Z,12.10
2022-11-26T09:06:22.169Z,12.20
2022-11-26T09:09:07.212Z,12.20
2022-11-26T09:11:37.958Z,12.20
2022-11-26T09:14:05.017Z,12.30
2022-11-26T09:16:32.287Z,12.30
2022-11-26T09:19:05.105Z,12.30
2022-11-26T09:21:33.906Z,12.40
2022-11-26T09:24:00.617Z,12.40
2022-11-26T09:26:28.972Z,12.50
2022-11-26T09:28:55.161Z,12.50
2022-11-26T09:31:21.372Z,12.50
2022-11-26T09:33:47.925Z,12.60
2022-11-26T09:36:16.112Z,12.60
2022-11-26T09:38:43.133Z,12.60
2022-11-26T09:41:46.662Z,12.60
2022-11-26T09:44:39.270Z,12.70
2022-11-26T09:47:16.910Z,12.70
2022-11-26T09:50:05.429Z,12.70
2022-11-26T09:52:47.530Z,12.70
2022-11-26T09:55:34.321Z,12.80
2022-11-26T09:58:27.522Z,12.80
2022-11-26T10:00:58.595Z,12.90
2022-11-26T10:03:32.847Z,13.00
2022-11-26T10:06:25.190Z,13.00
2022-11-26T10:09:30.397Z,13.10
2022-11-26T10:12:50.566Z,13.10
2022-11-26T10:15:49.875Z,13.10
2022-11-26T10:19:02.607Z,13.20
2022-11-26T10:24:37.761Z,13.20
2022-11-26T10:27:14.771Z,13.20
2022-11-26T10:29:47.244Z,13.30
2022-11-26T10:32:27.608Z,13.30
2022-11-26T10:34:58.247Z,13.30
2022-11-26T10:37:27.886Z,13.30
2022-11-26T10:40:15.844Z,13.40
2022-11-26T10:43:05.091Z,13.40
2022-11-26T10:45:43.375Z,13.50
2022-11-26T10:48:34.058Z,13.50
2022-11-26T10:51:15.906Z,13.50
2022-11-26T10:54:03.375Z,13.50
2022-11-26T10:56:46.573Z,13.50
2022-11-26T10:59:56.755Z,13.50
2022-11-26T11:02:36.526Z,13.50
2022-11-26T11:05:08.329Z,13.60
2022-11-26T11:07:37.420Z,13.60
2022-11-26T11:10:09.580Z,13.70
2022-11-26T11:12:52.846Z,13.70
2022-11-26T11:15:28.230Z,13.70
2022-11-26T11:18:18.748Z,13.80
2022-11-26T11:20:57.677Z,13.80
2022-11-26T11:23:45.653Z,13.90
2022-11-26T11:26:20.560Z,13.90
2022-11-26T11:28:51.285Z,13.90
2022-11-26T11:31:24.527Z,13.90
2022-11-26T11:34:10.203Z,14.00
2022-11-26T11:36:36.425Z,14.00
2022-11-26T11:39:04.236Z,14.00
2022-11-26T11:41:44.640Z,14.00
2022-11-26T11:44:38.680Z,14.00
2022-11-26T11:47:33.277Z,14.00
2022-11-26T11:50:29.118Z,14.00
2022-11-26T11:53:07.891Z,14.00
2022-11-26T11:56:21.593Z,14.00
2022-11-26T11:59:35.344Z,14.00
2022-11-26T12:02:52.879Z,13.90
2022-11-26T12:05:58.942Z,13.90
2022-11-26T12:09:16.847Z,13.80
2022-11-26T12:12:19.066Z,13.70
2022-11-26T12:15:02.471Z,13.70
2022-11-26T12:17:50.835Z,13.60
2022-11-26T12:20:31.080Z,13.60
2022-11-26T12:23:24.332Z,13.50
2022-11-26T12:26:08.930Z,13.50
2022-11-26T12:29:07.016Z,13.40
2022-11-26T12:31:33.143Z,13.30
2022-11-26T12:34:31.442Z,13.10
2022-11-26T12:37:18.193Z,13.00
2022-11-26T12:40:24.218Z,12.90
2022-11-26T12:43:37.437Z,12.90
2022-11-26T12:46:33.961Z,12.80
2022-11-26T12:49:17.491Z,12.80
2022-11-26T12:52:12.775Z,12.70
2022-11-26T12:54:52.866Z,12.70
2022-11-26T12:57:25.483Z,12.70
2022-11-26T13:00:06.054Z,12.70
2022-11-26T13:02:41.746Z,12.70
2022-11-26T13:05:19.159Z,12.60
2022-11-26T13:08:07.406Z,12.60
2022-11-26T13:11:12.636Z,12.60
2022-11-26T13:14:01.694Z,12.60
2022-11-26T13:16:43.066Z,12.60
2022-11-26T13:19:35.317Z,12.50
2022-11-26T13:22:55.362Z,12.50
2022-11-26T13:25:52.448Z,12.50
2022-11-26T13:28:53.948Z,12.50
2022-11-26T13:31:40.810Z,12.40
2022-11-26T13:34:57.683Z,12.40
2022-11-26T13:37:46.392Z,12.40
2022-11-26T13:40:40.994Z,12.40
2022-11-26T13:43:25.114Z,12.40
2022-11-26T13:46:09.073Z,12.40
2022-11-26T13:48:51.466Z,12.40
2022-11-26T13:51:48.297Z,12.40
2022-11-26T13:54:41.907Z,12.40
2022-11-26T13:57:16.324Z,12.40
2022-11-26T13:59:52.771Z,12.40
2022-11-26T14:02:37.324Z,12.40
2022-11-26T14:05:09.358Z,12.30
2022-11-26T14:07:36.222Z,12.30
2022-11-26T14:10:28.186Z,12.30
2022-11-26T14:13:03.164Z,12.30
2022-11-26T14:15:41.506Z,12.20
2022-11-26T14:18:13.907Z,12.20
2022-11-26T14:21:00.815Z,12.10
2022-11-26T14:23:54.204Z,12.10
2022-11-26T14:26:37.211Z,12.10
2022-11-26T14:29:06.480Z,12.20
2022-11-26T14:31:34.521Z,12.20
2022-11-26T14:34:33.172Z,12.10
2022-11-26T14:37:01.252Z,12.20
2022-11-26T14:39:28.765Z,12.20
2022-11-26T14:42:05.236Z,12.20
2022-11-26T14:44:32.960Z,12.20
2022-11-26T14:47:10.966Z,12.20
2022-11-26T14:49:47.791Z,12.20
2022-11-26T14:52:25.840Z,12.20
2022-11-26T14:54:57.468Z,12.20
2022-11-26T14:57:37.952Z,12.20
2022-11-26T15:00:27.150Z,12.20
2022-11-26T15:02:53.969Z,12.20
2022-11-26T15:05:25.802Z,12.20
2022-11-26T15:08:17.008Z,12.20
2022-11-26T15:10:53.777Z,12.10
2022-11-26T15:13:37.402Z,12.10
2022-11-26T15:16:23.957Z,12.10
2022-11-26T15:18:53.165Z,12.10
2022-11-26T15:21:25.042Z,12.00
2022-11-26T15:23:54.399Z,12.00
2022-11-26T15:26:25.154Z,12.00
2022-11-26T15:28:51.399Z,12.00
2022-11-26T15:31:17.713Z,11.90
2022-11-26T15:33:44.800Z,11.90
2022-11-26T15:36:17.163Z,11.90
2022-11-26T15:39:06.611Z,11.80
2022-11-26T15:41:42.416Z,11.80
2022-11-26T15:44:42.830Z,11.70
2022-11-26T15:47:19.456Z,11.70
2022-11-26T15:49:52.019Z,11.70
2022-11-26T15:52:25.247Z,11.70
2022-11-26T15:55:14.370Z,11.70
2022-11-26T15:57:41.970Z,11.70
2022-11-26T16:00:31.767Z,11.60
2022-11-26T16:02:58.179Z,11.60
2022-11-26T16:05:35.067Z,11.50
2022-11-26T16:08:31.611Z,11.40
2022-11-26T16:11:08.035Z,11.40
2022-11-26T16:13:35.392Z,11.40
2022-11-26T16:16:31.064Z,11.40
2022-11-26T16:18:59.338Z,11.40
2022-11-26T16:21:30.960Z,11.30
2022-11-26T16:24:02.061Z,11.30
2022-11-26T16:26:29.364Z,11.30
2022-11-26T16:28:55.741Z,11.30
2022-11-26T16:31:22.539Z,11.30
2022-11-26T16:33:48.777Z,11.20
2022-11-26T16:36:21.688Z,11.20
2022-11-26T16:38:48.846Z,11.20
2022-11-26T16:41:18.464Z,11.20
2022-11-26T16:43:44.754Z,11.20
2022-11-26T16:46:22.806Z,11.10
2022-11-26T16:48:50.398Z,11.10
2022-11-26T16:51:18.912Z,11.10
2022-11-26T16:53:45.188Z,11.10
2022-11-26T16:56:27.017Z,11.00
2022-11-26T16:58:56.836Z,11.00
2022-11-26T17:01:23.013Z,11.00
2022-11-26T17:03:49.255Z,10.90
2022-11-26T17:06:20.265Z,10.90
2022-11-26T17:08:49.842Z,10.90
2022-11-26T17:11:16.969Z,10.90
2022-11-26T17:13:43.147Z,10.80
2022-11-26T17:16:20.168Z,10.80
2022-11-26T17:18:47.692Z,10.80
2022-11-26T17:21:14.233Z,10.90
2022-11-26T17:23:40.600Z,10.80
2022-11-26T17:26:23.245Z,10.70
2022-11-26T17:28:50.194Z,10.70
2022-11-26T17:31:17.258Z,10.70
2022-11-26T17:33:43.637Z,10.70
2022-11-26T17:36:17.755Z,10.70
2022-11-26T17:38:44.503Z,10.60
2022-11-26T17:41:11.258Z,10.60
2022-11-26T17:43:37.913Z,10.60
2022-11-26T17:46:04.529Z,10.60
2022-11-26T17:48:30.813Z,10.60
2022-11-26T17:50:57.209Z,10.50
2022-11-26T17:53:23.350Z,10.50
2022-11-26T17:55:49.505Z,10.50
2022-11-26T17:58:15.677Z,10.50
2022-11-26T18:00:41.811Z,10.50
2022-11-26T18:03:08.439Z,10.40
2022-11-26T18:05:37.880Z,10.40
2022-11-26T18:08:06.765Z,10.40
2022-11-26T18:10:32.987Z,10.40
2022-11-26T18:12:59.141Z,10.30
2022-11-26T18:15:27.713Z,10.30
2022-11-26T18:17:54.993Z,10.30
2022-11-26T18:20:25.519Z,10.20
2022-11-26T18:22:56.186Z,10.20
2022-11-26T18:25:23.124Z,10.20
2022-11-26T18:27:49.546Z,10.20
2022-11-26T18:30:17.402Z,10.10
2022-11-26T18:32:43.682Z,10.10
2022-11-26T18:35:10.276Z,10.10
2022-11-26T18:37:39.139Z,10.00
2022-11-26T18:40:14.614Z,10.00
2022-11-26T18:42:40.955Z,10.00
2022-11-26T18:45:10.979Z,10.00
2022-11-26T18:47:37.550Z,9.90
2022-11-26T18:50:04.954Z,9.90
2022-11-26T18:52:31.196Z,9.90
2022-11-26T18:54:57.509Z,9.90
2022-11-26T18:57:23.651Z,9.80
2022-11-26T18:59:50.721Z,9.80
2022-11-26T19:02:17.044Z,9.80
2022-11-26T19:04:43.210Z,9.80
2022-11-26T19:07:13.062Z,9.70
2022-11-26T19:09:39.672Z,9.70
2022-11-26T19:12:06.311Z,9.70
2022-11-26T19:14:32.468Z,9.70
2022-11-26T19:16:58.663Z,9.70
2022-11-26T19:19:28.772Z,9.60
2022-11-26T19:22:00.746Z,9.60
2022-11-26T19:24:28.332Z,9.60
2022-11-26T19:26:54.491Z,9.60
2022-11-26T19:29:20.703Z,9.60
2022-11-26T19:31:46.817Z,9.60
2022-11-26T19:34:14.654Z,9.50
2022-11-26T19:36:41.390Z,9.50
2022-11-26T19:39:08.201Z,9.50
2022-11-26T19:41:34.424Z,9.50
2022-11-26T19:44:03.228Z,9.40
2022-11-26T19:46:29.566Z,9.40
2022-11-26T19:48:55.950Z,9.40
2022-11-26T19:51:25.629Z,9.30
2022-11-26T19:53:55.141Z,9.30
2022-11-26T19:56:28.347Z,9.30
2022-11-26T19:58:57.830Z,9.30
2022-11-26T20:01:26.517Z,9.20
2022-11-26T20:03:52.792Z,9.20
2022-11-26T20:06:25.872Z,9.20
2022-11-26T20:08:53.102Z,9.20
2022-11-26T20:11:19.727Z,9.20
2022-11-26T20:13:47.892Z,9.20
2022-11-26T20:16:24.501Z,9.20
2022-11-26T20:18:51.053Z,9.20
2022-11-26T20:21:26.283Z,9.10
2022-11-26T20:23:56.235Z,9.10
2022-11-26T20:26:33.924Z,9.10
2022-11-26T20:29:03.628Z,9.20
2022-11-26T20:31:30.417Z,9.20
2022-11-26T20:33:57.022Z,9.20
2022-11-26T20:36:23.535Z,9.10
2022-11-26T20:38:55.791Z,9.10
2022-11-26T20:41:23.560Z,9.10
2022-11-26T20:43:54.887Z,9.10
2022-11-26T20:46:25.514Z,9.20
2022-11-26T20:48:52.147Z,9.20
2022-11-26T20:51:21.000Z,9.20
2022-11-26T20:53:49.319Z,9.20
2022-11-26T20:56:20.473Z,9.20
2022-11-26T20:58:48.387Z,9.20
2022-11-26T21:01:19.275Z,9.20
2022-11-26T21:03:46.457Z,9.20
2022-11-26T21:06:14.796Z,9.20
2022-11-26T21:08:41.977Z,9.20
2022-11-26T21:11:08.880Z,9.20
2022-11-26T21:13:38.304Z,9.20
2022-11-26T21:16:07.484Z,9.20
2022-11-26T21:18:33.713Z,9.30
2022-11-26T21:21:07.141Z,9.20
2022-11-26T21:23:35.880Z,9.30
2022-11-26T21:26:06.630Z,9.30
2022-11-26T21:28:33.184Z,9.30
2022-11-26T21:31:06.097Z,9.30
2022-11-26T21:33:32.485Z,9.30
2022-11-26T21:36:08.261Z,9.30
2022-11-26T21:38:34.988Z,9.30
2022-11-26T21:41:11.715Z,9.30
2022-11-26T21:43:43.160Z,9.30
2022-11-26T21:46:15.716Z,9.30
2022-11-26T21:48:42.174Z,9.40
2022-11-26T21:51:15.607Z,9.40
2022-11-26T21:53:42.284Z,9.40
2022-11-26T21:56:15.927Z,9.40
2022-11-26T21:58:42.144Z,9.40
2022-11-26T22:01:28.508Z,9.40
2022-11-26T22:03:58.982Z,9.40
2022-11-26T22:06:25.691Z,9.40
2022-11-26T22:08:52.632Z,9.40
2022-11-26T22:11:24.957Z,9.40
2022-11-26T22:13:52.698Z,9.40
2022-11-26T22:16:22.801Z,9.40
2022-11-26T22:18:50.099Z,9.40
2022-11-26T22:21:21.603Z,9.40
2022-11-26T22:23:49.329Z,9.50
2022-11-26T22:26:15.964Z,9.50
2022-11-26T22:28:42.148Z,9.50
2022-11-26T22:31:17.627Z,9.40
2022-11-26T22:33:44.464Z,9.50
2022-11-26T22:36:11.655Z,9.40
2022-11-26T22:38:39.483Z,9.50
2022-11-26T22:41:11.200Z,9.40
2022-11-26T22:43:37.994Z,9.40
2022-11-26T22:46:16.688Z,9.40
2022-11-26T22:48:47.419Z,9.40
2022-11-26T22:51:13.786Z,9.40
2022-11-26T22:53:39.975Z,9.30
2022-11-26T22:56:06.623Z,9.40
2022-11-26T22:58:34.540Z,9.30
2022-11-26T23:01:07.703Z,9.30
2022-11-26T23:03:36.688Z,9.30
2022-11-26T23:06:07.875Z,9.30
2022-11-26T23:08:35.699Z,9.30
2022-11-26T23:11:18.765Z,9.30
2022-11-26T23:13:47.227Z,9.30
2022-11-26T23:16:14.331Z,9.30
2022-11-26T23:18:40.938Z,9.30
2022-11-26T23:21:20.358Z,9.20
2022-11-26T23:23:47.263Z,9.30
2022-11-26T23:26:25.016Z,9.20
2022-11-26T23:28:55.096Z,9.20
2022-11-26T23:31:25.737Z,9.20
2022-11-26T23:33:52.861Z,9.20
2022-11-26T23:36:19.940Z,9.20
2022-11-26T23:38:46.697Z,9.20
2022-11-26T23:41:13.524Z,9.20
2022-11-26T23:43:40.860Z,9.20
2022-11-26T23:46:13.375Z,9.20
2022-11-26T23:48:40.434Z,9.20
2022-11-26T23:51:10.586Z,9.10
2022-11-26T23:53:39.450Z,9.10
2022-11-26T23:56:11.775Z,9.10
2022-11-26T23:58:37.961Z,9.10
